sensor_id;sensor_type;location;lat;lon;timestamp;pressure;altitude;pressure_sealevel;temperature;humidity
37892;BME280;45797;47.466;9.486;2023-05-12T00:01:49;95471.06;;;12.42;71.80
37892;BME280;45797;47.466;9.486;2023-05-12T00:06:50;95469.81;;;12.46;71.51
37892;BME280;45797;47.466;9.486;2023-05-12T00:11:53;95468.47;;;12.52;71.63
37892;BME280;45797;47.466;9.486;2023-05-12T00:16:54;95468.06;;;12.56;71.50
37892;BME280;45797;47.466;9.486;2023-05-12T00:21:55;95468.75;;;12.58;71.34
37892;BME280;45797;47.466;9.486;2023-05-12T00:26:56;95466.13;;;12.58;71.46
37892;BME280;45797;47.466;9.486;2023-05-12T00:31:56;95462.44;;;12.61;71.11
37892;BME280;45797;47.466;9.486;2023-05-12T00:36:56;95464.09;;;12.62;71.51
37892;BME280;45797;47.466;9.486;2023-05-12T00:42:15;95471.84;;;12.64;71.05
37892;BME280;45797;47.466;9.486;2023-05-12T00:47:15;95463.97;;;12.64;71.46
37892;BME280;45797;47.466;9.486;2023-05-12T00:52:15;95456.78;;;12.66;71.62
37892;BME280;45797;47.466;9.486;2023-05-12T00:57:17;95470.59;;;12.68;71.90
37892;BME280;45797;47.466;9.486;2023-05-12T01:02:25;95462.72;;;12.68;71.96
37892;BME280;45797;47.466;9.486;2023-05-12T01:07:26;95459.97;;;12.69;71.73
37892;BME280;45797;47.466;9.486;2023-05-12T01:12:30;95459.84;;;12.71;71.59
37892;BME280;45797;47.466;9.486;2023-05-12T01:17:34;95468.44;;;12.73;71.44
37892;BME280;45797;47.466;9.486;2023-05-12T01:22:54;95460.81;;;12.70;71.71
37892;BME280;45797;47.466;9.486;2023-05-12T01:28:00;95464.16;;;12.72;72.08
37892;BME280;45797;47.466;9.486;2023-05-12T01:33:01;95463.31;;;12.71;71.94
37892;BME280;45797;47.466;9.486;2023-05-12T01:38:02;95464.84;;;12.74;71.90
37892;BME280;45797;47.466;9.486;2023-05-12T01:43:11;95465.53;;;12.76;71.66
37892;BME280;45797;47.466;9.486;2023-05-12T01:48:13;95456.69;;;12.77;71.91
37892;BME280;45797;47.466;9.486;2023-05-12T01:53:15;95463.88;;;12.75;72.33
37892;BME280;45797;47.466;9.486;2023-05-12T01:58:17;95467.19;;;12.77;72.00
37892;BME280;45797;47.466;9.486;2023-05-12T02:03:23;95458.47;;;12.76;71.84
37892;BME280;45797;47.466;9.486;2023-05-12T02:08:23;95462.22;;;12.74;72.24
37892;BME280;45797;47.466;9.486;2023-05-12T02:13:25;95458.88;;;12.72;72.21
37892;BME280;45797;47.466;9.486;2023-05-12T02:18:40;95459.41;;;12.66;71.94
37892;BME280;45797;47.466;9.486;2023-05-12T02:23:40;95456.78;;;12.66;72.45
37892;BME280;45797;47.466;9.486;2023-05-12T02:28:41;95457.47;;;12.68;72.30
37892;BME280;45797;47.466;9.486;2023-05-12T02:33:41;95451.38;;;12.67;72.27
37892;BME280;45797;47.466;9.486;2023-05-12T02:38:59;95459.13;;;12.69;72.25
37892;BME280;45797;47.466;9.486;2023-05-12T02:44:12;95451.97;;;12.71;72.09
37892;BME280;45797;47.466;9.486;2023-05-12T02:49:29;95452.53;;;12.74;72.03
37892;BME280;45797;47.466;9.486;2023-05-12T02:54:30;95446.16;;;12.77;72.50
37892;BME280;45797;47.466;9.486;2023-05-12T02:59:49;95446.44;;;12.74;72.22
37892;BME280;45797;47.466;9.486;2023-05-12T03:04:56;95450.44;;;12.78;72.34
37892;BME280;45797;47.466;9.486;2023-05-12T03:09:57;95446.44;;;12.74;72.59
37892;BME280;45797;47.466;9.486;2023-05-12T03:15:05;95450.00;;;12.63;72.63
37892;BME280;45797;47.466;9.486;2023-05-12T03:20:08;95444.75;;;12.63;73.05
37892;BME280;45797;47.466;9.486;2023-05-12T03:25:10;95441.28;;;12.63;72.81
37892;BME280;45797;47.466;9.486;2023-05-12T03:30:15;95445.56;;;12.64;73.02
37892;BME280;45797;47.466;9.486;2023-05-12T03:35:19;95455.13;;;12.65;73.06
37892;BME280;45797;47.466;9.486;2023-05-12T03:40:26;95447.78;;;12.68;72.72
37892;BME280;45797;47.466;9.486;2023-05-12T03:45:29;95453.22;;;12.76;73.19
37892;BME280;45797;47.466;9.486;2023-05-12T03:50:42;95449.75;;;12.76;72.46
37892;BME280;45797;47.466;9.486;2023-05-12T03:55:56;95446.16;;;12.77;72.20
37892;BME280;45797;47.466;9.486;2023-05-12T04:00:58;95436.34;;;12.79;72.51
37892;BME280;45797;47.466;9.486;2023-05-12T04:06:02;95433.16;;;12.75;72.57
37892;BME280;45797;47.466;9.486;2023-05-12T04:11:03;95434.00;;;12.76;72.58
37892;BME280;45797;47.466;9.486;2023-05-12T04:16:03;95435.66;;;12.77;72.81
37892;BME280;45797;47.466;9.486;2023-05-12T04:21:19;95440.06;;;12.76;72.28
37892;BME280;45797;47.466;9.486;2023-05-12T04:26:20;95439.94;;;12.78;72.69
37892;BME280;45797;47.466;9.486;2023-05-12T04:31:21;95448.28;;;12.83;72.53
37892;BME280;45797;47.466;9.486;2023-05-12T04:36:22;95449.41;;;12.90;72.45
37892;BME280;45797;47.466;9.486;2023-05-12T04:41:32;95453.97;;;12.98;72.24
37892;BME280;45797;47.466;9.486;2023-05-12T04:46:35;95456.91;;;13.04;72.24
37892;BME280;45797;47.466;9.486;2023-05-12T04:51:36;95449.63;;;13.08;71.96
37892;BME280;45797;47.466;9.486;2023-05-12T04:56:42;95456.94;;;13.14;71.95
37892;BME280;45797;47.466;9.486;2023-05-12T05:01:43;95459.44;;;13.15;71.71
37892;BME280;45797;47.466;9.486;2023-05-12T05:06:52;95465.31;;;13.19;71.83
37892;BME280;45797;47.466;9.486;2023-05-12T05:11:55;95464.88;;;13.24;71.82
37892;BME280;45797;47.466;9.486;2023-05-12T05:16:58;95457.16;;;13.32;71.52
37892;BME280;45797;47.466;9.486;2023-05-12T05:22:02;95464.75;;;13.35;71.86
37892;BME280;45797;47.466;9.486;2023-05-12T05:27:03;95462.56;;;13.40;71.69
37892;BME280;45797;47.466;9.486;2023-05-12T05:32:05;95465.50;;;13.47;71.83
37892;BME280;45797;47.466;9.486;2023-05-12T05:37:19;95474.91;;;13.49;71.19
37892;BME280;45797;47.466;9.486;2023-05-12T05:42:20;95476.88;;;13.57;71.86
37892;BME280;45797;47.466;9.486;2023-05-12T05:47:21;95474.94;;;13.68;71.42
37892;BME280;45797;47.466;9.486;2023-05-12T05:52:25;95474.78;;;13.80;70.99
37892;BME280;45797;47.466;9.486;2023-05-12T05:57:25;95480.34;;;13.86;70.97
37892;BME280;45797;47.466;9.486;2023-05-12T06:02:43;95473.69;;;13.92;70.67
37892;BME280;45797;47.466;9.486;2023-05-12T06:07:47;95478.69;;;13.76;71.45
37892;BME280;45797;47.466;9.486;2023-05-12T06:12:49;95487.66;;;13.73;72.03
37892;BME280;45797;47.466;9.486;2023-05-12T06:17:55;95484.66;;;13.87;71.54
37892;BME280;45797;47.466;9.486;2023-05-12T06:23:14;95491.72;;;14.06;70.93
37892;BME280;45797;47.466;9.486;2023-05-12T06:28:15;95488.50;;;14.32;70.81
37892;BME280;45797;47.466;9.486;2023-05-12T06:33:17;95491.50;;;14.66;70.22
37892;BME280;45797;47.466;9.486;2023-05-12T06:38:17;95489.69;;;15.03;69.17
37892;BME280;45797;47.466;9.486;2023-05-12T06:43:18;95491.94;;;15.35;68.50
37892;BME280;45797;47.466;9.486;2023-05-12T06:48:20;95486.03;;;15.69;67.86
37892;BME280;45797;47.466;9.486;2023-05-12T06:53:20;95480.53;;;15.80;67.99
37892;BME280;45797;47.466;9.486;2023-05-12T06:58:21;95489.13;;;15.82;67.80
37892;BME280;45797;47.466;9.486;2023-05-12T07:03:30;95484.41;;;15.58;68.51
37892;BME280;45797;47.466;9.486;2023-05-12T07:08:35;95479.63;;;15.26;69.14
37892;BME280;45797;47.466;9.486;2023-05-12T07:13:35;95487.81;;;14.86;70.53
37892;BME280;45797;47.466;9.486;2023-05-12T07:18:36;95496.53;;;14.49;70.90
37892;BME280;45797;47.466;9.486;2023-05-12T07:23:42;95492.97;;;14.21;71.52
37892;BME280;45797;47.466;9.486;2023-05-12T07:28:49;95493.50;;;14.06;71.82
37892;BME280;45797;47.466;9.486;2023-05-12T07:33:49;95489.47;;;14.11;71.92
37892;BME280;45797;47.466;9.486;2023-05-12T07:39:01;95489.06;;;14.25;71.37
37892;BME280;45797;47.466;9.486;2023-05-12T07:44:09;95483.47;;;14.38;70.98
37892;BME280;45797;47.466;9.486;2023-05-12T07:49:10;95493.06;;;14.49;70.81
37892;BME280;45797;47.466;9.486;2023-05-12T07:54:17;95487.88;;;14.67;70.68
37892;BME280;45797;47.466;9.486;2023-05-12T07:59:19;95492.94;;;14.88;69.98
37892;BME280;45797;47.466;9.486;2023-05-12T08:04:19;95491.22;;;15.06;69.53
37892;BME280;45797;47.466;9.486;2023-05-12T08:09:26;95478.19;;;15.32;69.25
37892;BME280;45797;47.466;9.486;2023-05-12T08:14:27;95489.28;;;15.63;68.62
37892;BME280;45797;47.466;9.486;2023-05-12T08:19:28;95487.03;;;15.86;68.13
37892;BME280;45797;47.466;9.486;2023-05-12T08:24:44;95487.72;;;16.23;67.16
37892;BME280;45797;47.466;9.486;2023-05-12T08:29:46;95480.00;;;16.30;66.90
37892;BME280;45797;47.466;9.486;2023-05-12T08:34:55;95484.31;;;16.31;67.12
37892;BME280;45797;47.466;9.486;2023-05-12T08:39:59;95478.03;;;16.32;67.25
37892;BME280;45797;47.466;9.486;2023-05-12T08:45:15;95488.34;;;16.43;67.08
37892;BME280;45797;47.466;9.486;2023-05-12T08:50:20;95492.78;;;16.61;66.53
37892;BME280;45797;47.466;9.486;2023-05-12T08:55:25;95484.84;;;16.87;65.46
37892;BME280;45797;47.466;9.486;2023-05-12T09:00:30;95486.66;;;17.12;65.54
37892;BME280;45797;47.466;9.486;2023-05-12T09:05:33;95496.19;;;17.39;64.80
37892;BME280;45797;47.466;9.486;2023-05-12T09:10:40;95485.31;;;17.50;64.80
37892;BME280;45797;47.466;9.486;2023-05-12T09:15:43;95496.28;;;17.21;65.64
37892;BME280;45797;47.466;9.486;2023-05-12T09:20:45;95486.97;;;17.09;66.12
37892;BME280;45797;47.466;9.486;2023-05-12T09:25:45;95486.56;;;17.30;65.51
37892;BME280;45797;47.466;9.486;2023-05-12T09:30:53;95487.44;;;17.38;64.90
37892;BME280;45797;47.466;9.486;2023-05-12T09:35:53;95491.22;;;17.36;65.06
37892;BME280;45797;47.466;9.486;2023-05-12T09:40:55;95490.44;;;17.44;65.14
37892;BME280;45797;47.466;9.486;2023-05-12T09:46:03;95494.84;;;17.77;64.03
37892;BME280;45797;47.466;9.486;2023-05-12T09:51:33;95484.47;;;17.92;63.97
37892;BME280;45797;47.466;9.486;2023-05-12T09:56:49;95494.09;;;18.17;63.43
37892;BME280;45797;47.466;9.486;2023-05-12T10:01:55;95486.97;;;18.42;63.10
37892;BME280;45797;47.466;9.486;2023-05-12T10:06:58;95483.50;;;18.58;62.55
37892;BME280;45797;47.466;9.486;2023-05-12T10:12:08;95477.78;;;18.94;61.83
37892;BME280;45797;47.466;9.486;2023-05-12T10:17:09;95484.88;;;19.18;61.51
37892;BME280;45797;47.466;9.486;2023-05-12T10:22:11;95473.41;;;19.64;60.47
37892;BME280;45797;47.466;9.486;2023-05-12T10:27:16;95473.84;;;19.99;59.53
37892;BME280;45797;47.466;9.486;2023-05-12T10:32:18;95472.06;;;20.00;59.47
37892;BME280;45797;47.466;9.486;2023-05-12T10:37:22;95465.59;;;20.17;58.93
37892;BME280;45797;47.466;9.486;2023-05-12T10:42:22;95466.59;;;20.39;58.42
37892;BME280;45797;47.466;9.486;2023-05-12T10:47:35;95466.09;;;20.96;57.15
37892;BME280;45797;47.466;9.486;2023-05-12T10:52:35;95458.75;;;21.42;56.03
37892;BME280;45797;47.466;9.486;2023-05-12T10:57:47;95462.63;;;21.76;55.48
37892;BME280;45797;47.466;9.486;2023-05-12T11:02:49;95457.63;;;21.87;54.91
37892;BME280;45797;47.466;9.486;2023-05-12T11:07:53;95456.56;;;21.82;55.24
37892;BME280;45797;47.466;9.486;2023-05-12T11:12:53;95455.84;;;21.73;55.16
37892;BME280;45797;47.466;9.486;2023-05-12T11:17:53;95458.53;;;21.58;55.60
37892;BME280;45797;47.466;9.486;2023-05-12T11:22:58;95452.84;;;21.61;55.53
37892;BME280;45797;47.466;9.486;2023-05-12T11:27:58;95449.25;;;21.54;55.38
37892;BME280;45797;47.466;9.486;2023-05-12T11:33:01;95449.06;;;21.56;55.22
37892;BME280;45797;47.466;9.486;2023-05-12T11:38:13;95457.84;;;21.35;55.35
37892;BME280;45797;47.466;9.486;2023-05-12T11:43:19;95444.84;;;21.02;56.04
37892;BME280;45797;47.466;9.486;2023-05-12T11:48:32;95445.53;;;21.04;55.93
37892;BME280;45797;47.466;9.486;2023-05-12T11:53:39;95451.38;;;21.00;55.59
37892;BME280;45797;47.466;9.486;2023-05-12T11:58:54;95441.09;;;21.11;55.19
37892;BME280;45797;47.466;9.486;2023-05-12T12:04:06;95438.06;;;21.44;54.17
37892;BME280;45797;47.466;9.486;2023-05-12T12:09:08;95445.88;;;21.46;54.61
37892;BME280;45797;47.466;9.486;2023-05-12T12:14:27;95454.25;;;21.43;54.88
37892;BME280;45797;47.466;9.486;2023-05-12T12:19:27;95442.56;;;21.44;53.98
37892;BME280;45797;47.466;9.486;2023-05-12T12:24:29;95446.88;;;21.00;54.27
37892;BME280;45797;47.466;9.486;2023-05-12T12:29:30;95448.72;;;21.00;54.55
37892;BME280;45797;47.466;9.486;2023-05-12T12:34:47;95447.72;;;21.45;53.46
37892;BME280;45797;47.466;9.486;2023-05-12T12:39:50;95445.72;;;21.32;53.58
37892;BME280;45797;47.466;9.486;2023-05-12T12:45:06;95447.09;;;21.43;53.97
37892;BME280;45797;47.466;9.486;2023-05-12T12:50:07;95454.38;;;21.71;52.94
37892;BME280;45797;47.466;9.486;2023-05-12T12:55:15;95452.25;;;21.81;53.01
37892;BME280;45797;47.466;9.486;2023-05-12T13:00:17;95451.28;;;21.88;52.87
37892;BME280;45797;47.466;9.486;2023-05-12T13:05:18;95443.28;;;21.88;52.85
37892;BME280;45797;47.466;9.486;2023-05-12T13:10:20;95442.28;;;21.89;52.89
37892;BME280;45797;47.466;9.486;2023-05-12T13:15:21;95443.63;;;22.00;52.62
37892;BME280;45797;47.466;9.486;2023-05-12T13:20:21;95433.78;;;22.22;52.55
37892;BME280;45797;47.466;9.486;2023-05-12T13:25:22;95432.03;;;22.57;51.26
37892;BME280;45797;47.466;9.486;2023-05-12T13:30:31;95428.81;;;23.24;50.18
37892;BME280;45797;47.466;9.486;2023-05-12T13:35:35;95426.47;;;23.56;49.97
37892;BME280;45797;47.466;9.486;2023-05-12T13:40:35;95422.84;;;23.70;49.58
37892;BME280;45797;47.466;9.486;2023-05-12T13:45:36;95424.09;;;23.74;49.63
37892;BME280;45797;47.466;9.486;2023-05-12T13:50:36;95413.81;;;23.78;50.12
37892;BME280;45797;47.466;9.486;2023-05-12T13:55:37;95404.81;;;24.12;49.07
37892;BME280;45797;47.466;9.486;2023-05-12T14:00:38;95407.06;;;24.15;49.04
37892;BME280;45797;47.466;9.486;2023-05-12T14:05:40;95406.09;;;24.42;48.87
37892;BME280;45797;47.466;9.486;2023-05-12T14:10:41;95405.06;;;24.43;48.78
37892;BME280;45797;47.466;9.486;2023-05-12T14:15:51;95402.78;;;24.54;48.64
37892;BME280;45797;47.466;9.486;2023-05-12T14:20:52;95393.09;;;24.79;47.79
37892;BME280;45797;47.466;9.486;2023-05-12T14:25:56;95395.09;;;25.10;47.19
37892;BME280;45797;47.466;9.486;2023-05-12T14:30:57;95395.50;;;25.00;47.55
37892;BME280;45797;47.466;9.486;2023-05-12T14:35:57;95400.69;;;24.89;47.35
37892;BME280;45797;47.466;9.486;2023-05-12T14:40:58;95391.22;;;24.73;47.63
37892;BME280;45797;47.466;9.486;2023-05-12T14:45:58;95384.69;;;24.56;47.66
37892;BME280;45797;47.466;9.486;2023-05-12T14:51:01;95383.38;;;24.98;46.89
37892;BME280;45797;47.466;9.486;2023-05-12T14:56:02;95384.09;;;25.38;45.46
37892;BME280;45797;47.466;9.486;2023-05-12T15:01:05;95390.28;;;25.83;45.28
37892;BME280;45797;47.466;9.486;2023-05-12T15:06:15;95386.09;;;25.94;45.50
37892;BME280;45797;47.466;9.486;2023-05-12T15:11:16;95388.72;;;26.32;44.66
37892;BME280;45797;47.466;9.486;2023-05-12T15:16:17;95384.03;;;26.77;44.08
37892;BME280;45797;47.466;9.486;2023-05-12T15:21:42;95383.50;;;27.12;43.58
37892;BME280;45797;47.466;9.486;2023-05-12T15:26:43;95395.78;;;26.58;43.95
37892;BME280;45797;47.466;9.486;2023-05-12T15:31:44;95389.47;;;26.14;44.77
37892;BME280;45797;47.466;9.486;2023-05-12T15:36:44;95391.41;;;26.07;44.22
37892;BME280;45797;47.466;9.486;2023-05-12T15:42:01;95393.00;;;25.77;44.80
37892;BME280;45797;47.466;9.486;2023-05-12T15:47:03;95394.69;;;27.46;41.68
37892;BME280;45797;47.466;9.486;2023-05-12T15:52:05;95391.38;;;27.80;41.02
37892;BME280;45797;47.466;9.486;2023-05-12T15:57:07;95385.50;;;27.72;41.25
37892;BME280;45797;47.466;9.486;2023-05-12T16:02:08;95392.69;;;26.80;42.55
37892;BME280;45797;47.466;9.486;2023-05-12T16:07:09;95395.25;;;29.90;37.21
37892;BME280;45797;47.466;9.486;2023-05-12T16:12:25;95395.97;;;29.85;37.62
37892;BME280;45797;47.466;9.486;2023-05-12T16:17:27;95399.38;;;28.82;39.19
37892;BME280;45797;47.466;9.486;2023-05-12T16:22:28;95405.34;;;28.84;39.46
37892;BME280;45797;47.466;9.486;2023-05-12T16:27:33;95404.59;;;30.73;36.73
37892;BME280;45797;47.466;9.486;2023-05-12T16:32:37;95403.59;;;29.25;38.98
37892;BME280;45797;47.466;9.486;2023-05-12T16:37:37;95400.38;;;28.34;40.44
37892;BME280;45797;47.466;9.486;2023-05-12T16:42:55;95392.75;;;27.16;41.64
37892;BME280;45797;47.466;9.486;2023-05-12T16:47:55;95401.00;;;26.22;43.89
37892;BME280;45797;47.466;9.486;2023-05-12T16:52:55;95397.38;;;26.09;43.26
37892;BME280;45797;47.466;9.486;2023-05-12T16:58:02;95409.97;;;25.64;43.21
37892;BME280;45797;47.466;9.486;2023-05-12T17:03:03;95408.97;;;24.87;44.72
37892;BME280;45797;47.466;9.486;2023-05-12T17:08:05;95407.91;;;24.02;46.11
37892;BME280;45797;47.466;9.486;2023-05-12T17:13:05;95411.16;;;23.36;46.89
37892;BME280;45797;47.466;9.486;2023-05-12T17:18:25;95411.44;;;23.07;46.99
37892;BME280;45797;47.466;9.486;2023-05-12T17:23:26;95422.94;;;22.79;47.28
37892;BME280;45797;47.466;9.486;2023-05-12T17:28:29;95420.88;;;22.47;48.12
37892;BME280;45797;47.466;9.486;2023-05-12T17:33:29;95432.03;;;21.93;48.85
37892;BME280;45797;47.466;9.486;2023-05-12T17:38:36;95432.25;;;21.41;49.61
37892;BME280;45797;47.466;9.486;2023-05-12T17:43:39;95427.25;;;20.87;50.73
37892;BME280;45797;47.466;9.486;2023-05-12T17:48:47;95430.41;;;20.30;51.66
37892;BME280;45797;47.466;9.486;2023-05-12T17:53:48;95435.56;;;19.85;52.22
37892;BME280;45797;47.466;9.486;2023-05-12T17:59:05;95439.97;;;19.70;52.31
37892;BME280;45797;47.466;9.486;2023-05-12T18:04:05;95439.97;;;19.70;52.54
37892;BME280;45797;47.466;9.486;2023-05-12T18:09:07;95444.97;;;19.73;52.11
37892;BME280;45797;47.466;9.486;2023-05-12T18:14:12;95446.50;;;19.90;51.55
37892;BME280;45797;47.466;9.486;2023-05-12T18:19:12;95450.06;;;19.83;51.88
37892;BME280;45797;47.466;9.486;2023-05-12T18:24:13;95444.25;;;19.79;51.79
37892;BME280;45797;47.466;9.486;2023-05-12T18:29:16;95449.06;;;19.45;52.53
37892;BME280;45797;47.466;9.486;2023-05-12T18:34:19;95454.53;;;19.04;53.56
37892;BME280;45797;47.466;9.486;2023-05-12T18:39:22;95466.88;;;18.64;54.31
37892;BME280;45797;47.466;9.486;2023-05-12T18:44:23;95461.94;;;18.20;55.49
37892;BME280;45797;47.466;9.486;2023-05-12T18:49:31;95459.59;;;17.85;55.85
37892;BME280;45797;47.466;9.486;2023-05-12T18:54:47;95474.41;;;17.53;56.24
37892;BME280;45797;47.466;9.486;2023-05-12T18:59:55;95478.13;;;17.26;56.76
37892;BME280;45797;47.466;9.486;2023-05-12T19:04:55;95480.31;;;17.05;57.63
37892;BME280;45797;47.466;9.486;2023-05-12T19:09:56;95490.84;;;16.89;57.93
37892;BME280;45797;47.466;9.486;2023-05-12T19:14:56;95504.94;;;16.71;57.89
37892;BME280;45797;47.466;9.486;2023-05-12T19:19:57;95503.66;;;16.57;58.23
37892;BME280;45797;47.466;9.486;2023-05-12T19:25:01;95514.19;;;16.49;58.30
37892;BME280;45797;47.466;9.486;2023-05-12T19:30:04;95524.47;;;16.35;58.54
37892;BME280;45797;47.466;9.486;2023-05-12T19:35:05;95525.53;;;16.24;58.65
37892;BME280;45797;47.466;9.486;2023-05-12T19:40:06;95531.56;;;16.16;59.06
37892;BME280;45797;47.466;9.486;2023-05-12T19:45:07;95538.75;;;16.06;58.93
37892;BME280;45797;47.466;9.486;2023-05-12T19:50:08;95546.44;;;15.99;59.46
37892;BME280;45797;47.466;9.486;2023-05-12T19:55:19;95545.75;;;15.97;59.52
37892;BME280;45797;47.466;9.486;2023-05-12T20:00:19;95544.00;;;15.88;59.80
37892;BME280;45797;47.466;9.486;2023-05-12T20:05:22;95545.97;;;15.86;59.91
37892;BME280;45797;47.466;9.486;2023-05-12T20:10:22;95545.22;;;15.76;60.17
37892;BME280;45797;47.466;9.486;2023-05-12T20:15:27;95552.47;;;15.74;60.00
37892;BME280;45797;47.466;9.486;2023-05-12T20:20:28;95546.94;;;15.67;60.04
37892;BME280;45797;47.466;9.486;2023-05-12T20:25:29;95557.50;;;15.58;60.46
37892;BME280;45797;47.466;9.486;2023-05-12T20:30:32;95560.72;;;15.52;60.86
37892;BME280;45797;47.466;9.486;2023-05-12T20:35:36;95564.34;;;15.51;61.15
37892;BME280;45797;47.466;9.486;2023-05-12T20:40:38;95554.50;;;15.43;61.25
37892;BME280;45797;47.466;9.486;2023-05-12T20:45:52;95559.16;;;15.31;60.98
37892;BME280;45797;47.466;9.486;2023-05-12T20:50:53;95562.25;;;15.27;61.57
37892;BME280;45797;47.466;9.486;2023-05-12T20:56:05;95567.13;;;15.22;61.77
37892;BME280;45797;47.466;9.486;2023-05-12T21:01:07;95573.53;;;15.19;61.55
37892;BME280;45797;47.466;9.486;2023-05-12T21:06:08;95570.19;;;15.17;61.96
37892;BME280;45797;47.466;9.486;2023-05-12T21:11:16;95576.47;;;15.16;61.73
37892;BME280;45797;47.466;9.486;2023-05-12T21:16:41;95579.50;;;15.11;61.86
37892;BME280;45797;47.466;9.486;2023-05-12T21:21:42;95580.75;;;15.17;61.72
37892;BME280;45797;47.466;9.486;2023-05-12T21:26:43;95584.38;;;15.16;62.36
37892;BME280;45797;47.466;9.486;2023-05-12T21:31:44;95585.88;;;15.19;61.92
37892;BME280;45797;47.466;9.486;2023-05-12T21:37:02;95579.09;;;15.16;61.96
37892;BME280;45797;47.466;9.486;2023-05-12T21:42:05;95582.13;;;15.21;61.81
37892;BME280;45797;47.466;9.486;2023-05-12T21:47:05;95584.91;;;15.20;62.06
37892;BME280;45797;47.466;9.486;2023-05-12T21:52:06;95582.41;;;15.18;61.96
37892;BME280;45797;47.466;9.486;2023-05-12T21:57:07;95580.59;;;15.19;62.64
37892;BME280;45797;47.466;9.486;2023-05-12T22:02:09;95578.81;;;15.19;62.31
37892;BME280;45797;47.466;9.486;2023-05-12T22:07:12;95582.13;;;15.21;62.29
37892;BME280;45797;47.466;9.486;2023-05-12T22:12:20;95587.53;;;15.20;62.12
37892;BME280;45797;47.466;9.486;2023-05-12T22:17:32;95583.41;;;15.17;62.36
37892;BME280;45797;47.466;9.486;2023-05-12T22:22:32;95583.66;;;15.14;62.86
37892;BME280;45797;47.466;9.486;2023-05-12T22:27:50;95587.44;;;15.11;62.62
37892;BME280;45797;47.466;9.486;2023-05-12T22:32:50;95587.28;;;15.13;62.73
37892;BME280;45797;47.466;9.486;2023-05-12T22:37:59;95581.03;;;15.14;62.61
37892;BME280;45797;47.466;9.486;2023-05-12T22:43:02;95582.97;;;15.12;62.99
37892;BME280;45797;47.466;9.486;2023-05-12T22:48:02;95584.94;;;15.10;63.33
37892;BME280;45797;47.466;9.486;2023-05-12T22:53:08;95586.59;;;15.11;63.07
37892;BME280;45797;47.466;9.486;2023-05-12T22:58:09;95590.22;;;15.10;63.13
37892;BME280;45797;47.466;9.486;2023-05-12T23:03:11;95595.78;;;15.07;63.68
37892;BME280;45797;47.466;9.486;2023-05-12T23:08:22;95594.69;;;15.00;63.33
37892;BME280;45797;47.466;9.486;2023-05-12T23:13:23;95593.16;;;14.97;63.71
37892;BME280;45797;47.466;9.486;2023-05-12T23:18:23;95591.09;;;14.91;63.53
37892;BME280;45797;47.466;9.486;2023-05-12T23:23:25;95589.13;;;14.93;63.92
37892;BME280;45797;47.466;9.486;2023-05-12T23:28:32;95576.25;;;14.90;64.08
37892;BME280;45797;47.466;9.486;2023-05-12T23:33:47;95591.94;;;14.82;64.02
37892;BME280;45797;47.466;9.486;2023-05-12T23:38:49;95589.44;;;14.80;64.21
37892;BME280;45797;47.466;9.486;2023-05-12T23:43:52;95590.16;;;14.73;64.85
37892;BME280;45797;47.466;9.486;2023-05-12T23:49:06;95586.97;;;14.69;64.75
37892;BME280;45797;47.466;9.486;2023-05-12T23:54:06;95594.16;;;14.67;64.97
37892;BME280;45797;47.466;9.486;2023-05-12T23:59:07;95586.25;;;14.67;64.90
